sensor_id;sensor_type;location;lat;lon;timestamp;temperature;humidity
54700;DHT22;40599;53.132;6.090;2022-11-04T00:01:19;11.10;99.90
54700;DHT22;40599;53.132;6.090;2022-11-04T00:03:44;11.10;99.90
54700;DHT22;40599;53.132;6.090;2022-11-04T00:06:10;11.00;99.90
54700;DHT22;40599;53.132;6.090;2022-11-04T00:08:35;11.00;99.90
54700;DHT22;40599;53.132;6.090;2022-11-04T00:11:01;10.90;99.90
54700;DHT22;40599;53.132;6.090;2022-11-04T00:13:46;10.90;99.90
54700;DHT22;40599;53.132;6.090;2022-11-04T00:16:12;10.80;99.90
54700;DHT22;40599;53.132;6.090;2022-11-04T00:18:56;10.80;99.90
54700;DHT22;40599;53.132;6.090;2022-11-04T00:21:23;10.80;99.90
54700;DHT22;40599;53.132;6.090;2022-11-04T00:24:09;10.70;99.90
54700;DHT22;40599;53.132;6.090;2022-11-04T00:26:53;10.70;99.90
54700;DHT22;40599;53.132;6.090;2022-11-04T00:29:37;10.70;99.90
54700;DHT22;40599;53.132;6.090;2022-11-04T00:32:03;10.70;99.90
54700;DHT22;40599;53.132;6.090;2022-11-04T00:34:47;10.70;99.90
54700;DHT22;40599;53.132;6.090;2022-11-04T00:37:13;10.70;99.90
54700;DHT22;40599;53.132;6.090;2022-11-04T00:39:38;10.70;99.90
54700;DHT22;40599;53.132;6.090;2022-11-04T00:42:04;10.70;99.90
54700;DHT22;40599;53.132;6.090;2022-11-04T00:44:29;10.70;99.90
54700;DHT22;40599;53.132;6.090;2022-11-04T00:46:55;10.70;99.90
54700;DHT22;40599;53.132;6.090;2022-11-04T00:49:21;10.70;99.90
54700;DHT22;40599;53.132;6.090;2022-11-04T00:51:46;10.70;99.90
54700;DHT22;40599;53.132;6.090;2022-11-04T00:54:12;10.70;99.90
54700;DHT22;40599;53.132;6.090;2022-11-04T00:56:38;10.70;99.90
54700;DHT22;40599;53.132;6.090;2022-11-04T00:59:03;10.60;99.90
54700;DHT22;40599;53.132;6.090;2022-11-04T01:01:29;10.70;99.90
54700;DHT22;40599;53.132;6.090;2022-11-04T01:03:55;10.60;99.90
54700;DHT22;40599;53.132;6.090;2022-11-04T01:06:21;10.60;99.90
54700;DHT22;40599;53.132;6.090;2022-11-04T01:08:47;10.60;99.90
54700;DHT22;40599;53.132;6.090;2022-11-04T01:11:13;10.60;99.90
54700;DHT22;40599;53.132;6.090;2022-11-04T01:13:39;10.60;99.90
54700;DHT22;40599;53.132;6.090;2022-11-04T01:16:08;10.60;99.90
54700;DHT22;40599;53.132;6.090;2022-11-04T01:18:34;10.50;99.90
54700;DHT22;40599;53.132;6.090;2022-11-04T01:21:04;10.50;99.90
54700;DHT22;40599;53.132;6.090;2022-11-04T01:23:30;10.60;99.90
54700;DHT22;40599;53.132;6.090;2022-11-04T01:25:56;10.60;99.90
54700;DHT22;40599;53.132;6.090;2022-11-04T01:28:21;10.60;99.90
54700;DHT22;40599;53.132;6.090;2022-11-04T01:30:47;10.60;99.90
54700;DHT22;40599;53.132;6.090;2022-11-04T01:33:13;10.60;99.90
54700;DHT22;40599;53.132;6.090;2022-11-04T01:35:38;10.60;99.90
54700;DHT22;40599;53.132;6.090;2022-11-04T01:38:04;10.60;99.90
54700;DHT22;40599;53.132;6.090;2022-11-04T01:40:34;10.60;99.90
54700;DHT22;40599;53.132;6.090;2022-11-04T01:42:59;10.50;99.90
54700;DHT22;40599;53.132;6.090;2022-11-04T01:45:25;10.50;99.90
54700;DHT22;40599;53.132;6.090;2022-11-04T01:47:55;10.50;99.90
54700;DHT22;40599;53.132;6.090;2022-11-04T01:50:25;10.50;99.90
54700;DHT22;40599;53.132;6.090;2022-11-04T01:52:54;10.50;99.90
54700;DHT22;40599;53.132;6.090;2022-11-04T01:55:23;10.50;99.90
54700;DHT22;40599;53.132;6.090;2022-11-04T01:57:50;10.50;99.90
54700;DHT22;40599;53.132;6.090;2022-11-04T02:00:17;10.50;99.90
54700;DHT22;40599;53.132;6.090;2022-11-04T02:02:50;10.50;99.90
54700;DHT22;40599;53.132;6.090;2022-11-04T02:05:18;10.50;99.90
54700;DHT22;40599;53.132;6.090;2022-11-04T02:07:45;10.50;99.90
54700;DHT22;40599;53.132;6.090;2022-11-04T02:10:11;10.50;99.90
54700;DHT22;40599;53.132;6.090;2022-11-04T02:12:37;10.40;99.90
54700;DHT22;40599;53.132;6.090;2022-11-04T02:15:39;10.50;99.90
54700;DHT22;40599;53.132;6.090;2022-11-04T02:20:57;10.50;99.90
54700;DHT22;40599;53.132;6.090;2022-11-04T02:26:04;10.50;99.90
54700;DHT22;40599;53.132;6.090;2022-11-04T02:31:11;10.50;99.90
54700;DHT22;40599;53.132;6.090;2022-11-04T02:33:51;10.50;99.90
54700;DHT22;40599;53.132;6.090;2022-11-04T02:36:29;10.50;99.90
54700;DHT22;40599;53.132;6.090;2022-11-04T02:38:59;10.50;99.90
54700;DHT22;40599;53.132;6.090;2022-11-04T02:41:40;10.50;99.90
54700;DHT22;40599;53.132;6.090;2022-11-04T02:46:37;10.50;99.90
54700;DHT22;40599;53.132;6.090;2022-11-04T02:49:09;10.50;99.90
54700;DHT22;40599;53.132;6.090;2022-11-04T02:51:39;10.50;99.90
54700;DHT22;40599;53.132;6.090;2022-11-04T02:54:09;10.50;99.90
54700;DHT22;40599;53.132;6.090;2022-11-04T02:56:41;10.50;99.90
54700;DHT22;40599;53.132;6.090;2022-11-04T02:59:14;10.40;99.90
54700;DHT22;40599;53.132;6.090;2022-11-04T03:01:40;10.40;99.90
54700;DHT22;40599;53.132;6.090;2022-11-04T03:04:29;10.40;99.90
54700;DHT22;40599;53.132;6.090;2022-11-04T03:06:53;10.40;99.90
54700;DHT22;40599;53.132;6.090;2022-11-04T03:09:19;10.40;99.90
54700;DHT22;40599;53.132;6.090;2022-11-04T03:11:47;10.40;99.90
54700;DHT22;40599;53.132;6.090;2022-11-04T03:14:16;10.40;99.90
54700;DHT22;40599;53.132;6.090;2022-11-04T03:16:47;10.50;99.90
54700;DHT22;40599;53.132;6.090;2022-11-04T03:19:15;10.40;99.90
54700;DHT22;40599;53.132;6.090;2022-11-04T03:22:00;10.40;99.90
54700;DHT22;40599;53.132;6.090;2022-11-04T03:24:28;10.40;99.90
54700;DHT22;40599;53.132;6.090;2022-11-04T03:26:56;10.40;99.90
54700;DHT22;40599;53.132;6.090;2022-11-04T03:32:00;10.40;99.90
54700;DHT22;40599;53.132;6.090;2022-11-04T03:34:28;10.40;99.90
54700;DHT22;40599;53.132;6.090;2022-11-04T03:36:54;10.50;99.90
54700;DHT22;40599;53.132;6.090;2022-11-04T03:39:19;10.40;99.90
54700;DHT22;40599;53.132;6.090;2022-11-04T03:41:49;10.40;99.90
54700;DHT22;40599;53.132;6.090;2022-11-04T03:44:15;10.40;99.90
54700;DHT22;40599;53.132;6.090;2022-11-04T03:46:41;10.30;99.90
54700;DHT22;40599;53.132;6.090;2022-11-04T03:49:07;10.30;99.90
54700;DHT22;40599;53.132;6.090;2022-11-04T03:51:33;10.30;99.90
54700;DHT22;40599;53.132;6.090;2022-11-04T03:53:59;10.20;99.90
54700;DHT22;40599;53.132;6.090;2022-11-04T04:01:33;10.20;99.90
54700;DHT22;40599;53.132;6.090;2022-11-04T04:06:40;10.10;99.90
54700;DHT22;40599;53.132;6.090;2022-11-04T04:17:06;10.00;99.90
54700;DHT22;40599;53.132;6.090;2022-11-04T04:19:33;10.00;99.90
54700;DHT22;40599;53.132;6.090;2022-11-04T04:22:04;10.10;99.90
54700;DHT22;40599;53.132;6.090;2022-11-04T04:24:34;10.90;99.90
54700;DHT22;40599;53.132;6.090;2022-11-04T04:27:19;10.00;99.90
54700;DHT22;40599;53.132;6.090;2022-11-04T04:29:58;10.00;99.90
54700;DHT22;40599;53.132;6.090;2022-11-04T04:32:25;10.00;99.90
54700;DHT22;40599;53.132;6.090;2022-11-04T04:34:52;9.90;99.90
54700;DHT22;40599;53.132;6.090;2022-11-04T04:37:41;9.90;99.90
54700;DHT22;40599;53.132;6.090;2022-11-04T04:40:08;9.90;99.90
54700;DHT22;40599;53.132;6.090;2022-11-04T04:42:55;9.90;99.90
54700;DHT22;40599;53.132;6.090;2022-11-04T04:45:40;10.00;99.90
54700;DHT22;40599;53.132;6.090;2022-11-04T04:48:07;9.90;99.90
54700;DHT22;40599;53.132;6.090;2022-11-04T04:50:38;9.90;99.90
54700;DHT22;40599;53.132;6.090;2022-11-04T04:53:05;9.80;99.90
54700;DHT22;40599;53.132;6.090;2022-11-04T04:55:30;10.20;99.90
54700;DHT22;40599;53.132;6.090;2022-11-04T04:57:56;9.80;99.90
54700;DHT22;40599;53.132;6.090;2022-11-04T05:00:22;9.80;99.90
54700;DHT22;40599;53.132;6.090;2022-11-04T05:02:48;9.80;99.90
54700;DHT22;40599;53.132;6.090;2022-11-04T05:05:13;9.80;99.90
54700;DHT22;40599;53.132;6.090;2022-11-04T05:07:39;9.80;99.90
54700;DHT22;40599;53.132;6.090;2022-11-04T05:10:06;9.70;99.90
54700;DHT22;40599;53.132;6.090;2022-11-04T05:12:33;9.80;99.90
54700;DHT22;40599;53.132;6.090;2022-11-04T05:15:17;9.80;99.90
54700;DHT22;40599;53.132;6.090;2022-11-04T05:17:43;9.70;99.90
54700;DHT22;40599;53.132;6.090;2022-11-04T05:20:09;9.70;99.90
54700;DHT22;40599;53.132;6.090;2022-11-04T05:22:34;9.70;99.90
54700;DHT22;40599;53.132;6.090;2022-11-04T05:25:00;9.70;99.90
54700;DHT22;40599;53.132;6.090;2022-11-04T05:27:26;9.70;99.90
54700;DHT22;40599;53.132;6.090;2022-11-04T05:29:51;9.70;99.90
54700;DHT22;40599;53.132;6.090;2022-11-04T05:32:17;10.70;99.90
54700;DHT22;40599;53.132;6.090;2022-11-04T05:34:43;9.70;99.90
54700;DHT22;40599;53.132;6.090;2022-11-04T05:37:08;9.60;99.90
54700;DHT22;40599;53.132;6.090;2022-11-04T05:39:34;9.60;99.90
54700;DHT22;40599;53.132;6.090;2022-11-04T05:41:59;9.60;99.90
54700;DHT22;40599;53.132;6.090;2022-11-04T05:44:25;9.70;99.90
54700;DHT22;40599;53.132;6.090;2022-11-04T05:46:51;9.60;99.90
54700;DHT22;40599;53.132;6.090;2022-11-04T05:49:16;9.60;99.90
54700;DHT22;40599;53.132;6.090;2022-11-04T05:51:42;9.60;99.90
54700;DHT22;40599;53.132;6.090;2022-11-04T05:54:08;9.50;99.90
54700;DHT22;40599;53.132;6.090;2022-11-04T05:56:34;9.60;99.90
54700;DHT22;40599;53.132;6.090;2022-11-04T05:59:00;9.50;99.90
54700;DHT22;40599;53.132;6.090;2022-11-04T06:03:52;9.40;99.90
54700;DHT22;40599;53.132;6.090;2022-11-04T06:06:18;9.30;99.90
54700;DHT22;40599;53.132;6.090;2022-11-04T06:08:44;9.40;99.90
54700;DHT22;40599;53.132;6.090;2022-11-04T06:11:09;9.30;99.90
54700;DHT22;40599;53.132;6.090;2022-11-04T06:13:35;9.30;99.90
54700;DHT22;40599;53.132;6.090;2022-11-04T06:16:00;9.30;99.90
54700;DHT22;40599;53.132;6.090;2022-11-04T06:18:26;9.20;99.90
54700;DHT22;40599;53.132;6.090;2022-11-04T06:21:08;9.20;99.90
54700;DHT22;40599;53.132;6.090;2022-11-04T06:23:34;9.20;99.90
54700;DHT22;40599;53.132;6.090;2022-11-04T06:26:00;9.20;99.90
54700;DHT22;40599;53.132;6.090;2022-11-04T06:28:25;9.10;99.90
54700;DHT22;40599;53.132;6.090;2022-11-04T06:30:51;9.10;99.90
54700;DHT22;40599;53.132;6.090;2022-11-04T06:33:16;9.10;99.90
54700;DHT22;40599;53.132;6.090;2022-11-04T06:35:42;9.10;99.90
54700;DHT22;40599;53.132;6.090;2022-11-04T06:38:08;9.10;99.90
54700;DHT22;40599;53.132;6.090;2022-11-04T06:40:33;9.00;99.90
54700;DHT22;40599;53.132;6.090;2022-11-04T06:42:59;9.00;99.90
54700;DHT22;40599;53.132;6.090;2022-11-04T06:45:24;9.00;99.90
54700;DHT22;40599;53.132;6.090;2022-11-04T06:47:50;8.90;99.90
54700;DHT22;40599;53.132;6.090;2022-11-04T06:50:16;8.90;99.90
54700;DHT22;40599;53.132;6.090;2022-11-04T06:52:41;8.80;99.90
54700;DHT22;40599;53.132;6.090;2022-11-04T06:55:07;8.80;99.90
54700;DHT22;40599;53.132;6.090;2022-11-04T06:57:33;8.80;99.90
54700;DHT22;40599;53.132;6.090;2022-11-04T06:59:59;8.80;99.90
54700;DHT22;40599;53.132;6.090;2022-11-04T07:02:24;8.80;99.90
54700;DHT22;40599;53.132;6.090;2022-11-04T07:04:50;8.80;99.90
54700;DHT22;40599;53.132;6.090;2022-11-04T07:07:16;8.80;99.90
54700;DHT22;40599;53.132;6.090;2022-11-04T07:09:41;8.70;99.90
54700;DHT22;40599;53.132;6.090;2022-11-04T07:12:07;8.70;99.90
54700;DHT22;40599;53.132;6.090;2022-11-04T07:14:32;8.70;99.90
54700;DHT22;40599;53.132;6.090;2022-11-04T07:16:58;8.70;99.90
54700;DHT22;40599;53.132;6.090;2022-11-04T07:19:24;8.70;99.90
54700;DHT22;40599;53.132;6.090;2022-11-04T07:21:49;8.70;99.90
54700;DHT22;40599;53.132;6.090;2022-11-04T07:24:15;8.80;99.90
54700;DHT22;40599;53.132;6.090;2022-11-04T07:26:40;8.80;99.90
54700;DHT22;40599;53.132;6.090;2022-11-04T07:29:07;8.80;99.90
54700;DHT22;40599;53.132;6.090;2022-11-04T07:31:35;8.80;99.90
54700;DHT22;40599;53.132;6.090;2022-11-04T07:34:01;8.80;99.90
54700;DHT22;40599;53.132;6.090;2022-11-04T07:36:27;8.90;99.90
54700;DHT22;40599;53.132;6.090;2022-11-04T07:38:53;8.90;99.90
54700;DHT22;40599;53.132;6.090;2022-11-04T07:41:18;9.00;99.90
54700;DHT22;40599;53.132;6.090;2022-11-04T07:43:50;9.10;99.90
54700;DHT22;40599;53.132;6.090;2022-11-04T07:46:16;9.10;99.90
54700;DHT22;40599;53.132;6.090;2022-11-04T07:48:42;9.20;99.90
54700;DHT22;40599;53.132;6.090;2022-11-04T07:51:09;9.20;99.90
54700;DHT22;40599;53.132;6.090;2022-11-04T07:53:35;9.30;99.90
54700;DHT22;40599;53.132;6.090;2022-11-04T07:56:04;9.40;99.90
54700;DHT22;40599;53.132;6.090;2022-11-04T07:58:30;9.30;99.90
54700;DHT22;40599;53.132;6.090;2022-11-04T08:00:57;9.40;99.90
54700;DHT22;40599;53.132;6.090;2022-11-04T08:03:23;9.50;99.90
54700;DHT22;40599;53.132;6.090;2022-11-04T08:05:53;9.50;99.90
54700;DHT22;40599;53.132;6.090;2022-11-04T08:08:19;9.60;99.90
54700;DHT22;40599;53.132;6.090;2022-11-04T08:10:50;9.60;99.90
54700;DHT22;40599;53.132;6.090;2022-11-04T08:13:15;9.70;99.90
54700;DHT22;40599;53.132;6.090;2022-11-04T08:15:41;9.80;99.90
54700;DHT22;40599;53.132;6.090;2022-11-04T08:18:06;9.80;99.90
54700;DHT22;40599;53.132;6.090;2022-11-04T08:20:32;9.90;99.90
54700;DHT22;40599;53.132;6.090;2022-11-04T08:22:58;10.00;99.90
54700;DHT22;40599;53.132;6.090;2022-11-04T08:25:23;10.00;99.90
54700;DHT22;40599;53.132;6.090;2022-11-04T08:27:49;10.00;99.90
54700;DHT22;40599;53.132;6.090;2022-11-04T08:30:14;10.10;99.90
54700;DHT22;40599;53.132;6.090;2022-11-04T08:32:40;10.10;99.90
54700;DHT22;40599;53.132;6.090;2022-11-04T08:35:06;10.10;99.90
54700;DHT22;40599;53.132;6.090;2022-11-04T08:37:33;10.20;99.90
54700;DHT22;40599;53.132;6.090;2022-11-04T08:39:59;10.20;99.90
54700;DHT22;40599;53.132;6.090;2022-11-04T08:42:24;10.30;99.90
54700;DHT22;40599;53.132;6.090;2022-11-04T08:44:50;10.30;99.90
54700;DHT22;40599;53.132;6.090;2022-11-04T08:47:16;10.40;99.90
54700;DHT22;40599;53.132;6.090;2022-11-04T08:49:42;10.40;99.90
54700;DHT22;40599;53.132;6.090;2022-11-04T08:52:08;10.50;99.90
54700;DHT22;40599;53.132;6.090;2022-11-04T08:54:34;10.50;99.90
54700;DHT22;40599;53.132;6.090;2022-11-04T08:57:00;10.60;99.90
54700;DHT22;40599;53.132;6.090;2022-11-04T08:59:25;10.60;99.90
54700;DHT22;40599;53.132;6.090;2022-11-04T09:01:51;10.70;99.90
54700;DHT22;40599;53.132;6.090;2022-11-04T09:04:17;10.80;99.90
54700;DHT22;40599;53.132;6.090;2022-11-04T09:06:44;10.90;99.90
54700;DHT22;40599;53.132;6.090;2022-11-04T09:09:12;10.90;99.90
54700;DHT22;40599;53.132;6.090;2022-11-04T09:11:39;10.90;99.90
54700;DHT22;40599;53.132;6.090;2022-11-04T09:14:05;10.90;99.90
54700;DHT22;40599;53.132;6.090;2022-11-04T09:16:31;11.00;99.90
54700;DHT22;40599;53.132;6.090;2022-11-04T09:18:57;11.00;99.90
54700;DHT22;40599;53.132;6.090;2022-11-04T09:21:23;11.10;99.90
54700;DHT22;40599;53.132;6.090;2022-11-04T09:23:49;11.20;99.90
54700;DHT22;40599;53.132;6.090;2022-11-04T09:26:15;11.20;99.90
54700;DHT22;40599;53.132;6.090;2022-11-04T09:28:41;11.20;99.90
54700;DHT22;40599;53.132;6.090;2022-11-04T09:31:08;11.30;99.90
54700;DHT22;40599;53.132;6.090;2022-11-04T09:33:34;11.40;99.90
54700;DHT22;40599;53.132;6.090;2022-11-04T09:35:59;11.50;99.90
54700;DHT22;40599;53.132;6.090;2022-11-04T09:38:25;11.50;99.90
54700;DHT22;40599;53.132;6.090;2022-11-04T09:40:51;11.60;99.90
54700;DHT22;40599;53.132;6.090;2022-11-04T09:43:31;11.70;99.90
54700;DHT22;40599;53.132;6.090;2022-11-04T09:46:02;11.70;99.90
54700;DHT22;40599;53.132;6.090;2022-11-04T09:48:31;11.70;99.90
54700;DHT22;40599;53.132;6.090;2022-11-04T09:50:58;11.70;99.90
54700;DHT22;40599;53.132;6.090;2022-11-04T09:56:02;11.70;99.90
54700;DHT22;40599;53.132;6.090;2022-11-04T09:58:31;11.70;99.90
54700;DHT22;40599;53.132;6.090;2022-11-04T10:09:20;11.90;99.90
54700;DHT22;40599;53.132;6.090;2022-11-04T10:11:58;11.90;99.90
54700;DHT22;40599;53.132;6.090;2022-11-04T10:14:29;11.10;99.90
54700;DHT22;40599;53.132;6.090;2022-11-04T10:19:29;12.10;99.90
54700;DHT22;40599;53.132;6.090;2022-11-04T10:22:06;12.10;99.90
54700;DHT22;40599;53.132;6.090;2022-11-04T10:26:59;12.10;99.90
54700;DHT22;40599;53.132;6.090;2022-11-04T10:30:28;12.20;99.90
54700;DHT22;40599;53.132;6.090;2022-11-04T10:32:28;12.20;99.90
54700;DHT22;40599;53.132;6.090;2022-11-04T10:34:57;12.20;99.90
54700;DHT22;40599;53.132;6.090;2022-11-04T10:37:24;12.30;99.90
54700;DHT22;40599;53.132;6.090;2022-11-04T10:39:51;12.30;99.90
54700;DHT22;40599;53.132;6.090;2022-11-04T10:42:17;12.20;99.90
54700;DHT22;40599;53.132;6.090;2022-11-04T10:44:45;12.10;99.90
54700;DHT22;40599;53.132;6.090;2022-11-04T10:52:23;11.80;99.90
54700;DHT22;40599;53.132;6.090;2022-11-04T10:54:49;11.70;99.90
54700;DHT22;40599;53.132;6.090;2022-11-04T10:57:22;11.60;99.90
54700;DHT22;40599;53.132;6.090;2022-11-04T11:07:42;11.60;99.90
54700;DHT22;40599;53.132;6.090;2022-11-04T11:10:30;11.60;99.90
54700;DHT22;40599;53.132;6.090;2022-11-04T11:17:50;11.50;99.90
54700;DHT22;40599;53.132;6.090;2022-11-04T11:20:19;11.40;99.90
54700;DHT22;40599;53.132;6.090;2022-11-04T11:22:46;11.40;99.90
54700;DHT22;40599;53.132;6.090;2022-11-04T11:25:13;11.30;99.90
54700;DHT22;40599;53.132;6.090;2022-11-04T11:27:39;11.30;99.90
54700;DHT22;40599;53.132;6.090;2022-11-04T11:30:06;11.30;99.90
54700;DHT22;40599;53.132;6.090;2022-11-04T11:32:43;11.30;99.90
54700;DHT22;40599;53.132;6.090;2022-11-04T11:35:15;11.40;99.90
54700;DHT22;40599;53.132;6.090;2022-11-04T11:37:43;11.40;99.90
54700;DHT22;40599;53.132;6.090;2022-11-04T11:42:50;11.50;99.90
54700;DHT22;40599;53.132;6.090;2022-11-04T11:45:16;11.60;99.90
54700;DHT22;40599;53.132;6.090;2022-11-04T11:47:42;11.70;99.90
54700;DHT22;40599;53.132;6.090;2022-11-04T11:50:15;11.80;99.90
54700;DHT22;40599;53.132;6.090;2022-11-04T11:52:42;12.00;99.90
54700;DHT22;40599;53.132;6.090;2022-11-04T12:00:04;12.40;99.90
54700;DHT22;40599;53.132;6.090;2022-11-04T12:04:59;12.60;99.90
54700;DHT22;40599;53.132;6.090;2022-11-04T12:07:28;12.70;99.90
54700;DHT22;40599;53.132;6.090;2022-11-04T12:18:31;12.80;99.90
54700;DHT22;40599;53.132;6.090;2022-11-04T12:23:56;13.00;99.90
54700;DHT22;40599;53.132;6.090;2022-11-04T12:26:28;13.10;99.90
54700;DHT22;40599;53.132;6.090;2022-11-04T12:38:03;13.30;99.90
54700;DHT22;40599;53.132;6.090;2022-11-04T12:40:28;13.30;99.90
54700;DHT22;40599;53.132;6.090;2022-11-04T12:48:03;13.30;99.90
54700;DHT22;40599;53.132;6.090;2022-11-04T13:01:14;13.50;99.90
54700;DHT22;40599;53.132;6.090;2022-11-04T13:03:57;13.60;99.90
54700;DHT22;40599;53.132;6.090;2022-11-04T13:06:33;13.60;99.90
54700;DHT22;40599;53.132;6.090;2022-11-04T13:09:04;13.70;99.90
54700;DHT22;40599;53.132;6.090;2022-11-04T13:14:17;14.00;99.90
54700;DHT22;40599;53.132;6.090;2022-11-04T13:16:46;14.00;99.90
54700;DHT22;40599;53.132;6.090;2022-11-04T13:22:00;14.00;99.90
54700;DHT22;40599;53.132;6.090;2022-11-04T13:24:30;14.00;99.90
54700;DHT22;40599;53.132;6.090;2022-11-04T13:26:58;14.10;99.90
54700;DHT22;40599;53.132;6.090;2022-11-04T13:29:26;14.10;99.90
54700;DHT22;40599;53.132;6.090;2022-11-04T13:31:54;14.10;99.90
54700;DHT22;40599;53.132;6.090;2022-11-04T13:39:55;14.10;99.90
54700;DHT22;40599;53.132;6.090;2022-11-04T13:44:51;14.00;99.90
54700;DHT22;40599;53.132;6.090;2022-11-04T13:47:18;12.50;99.90
54700;DHT22;40599;53.132;6.090;2022-11-04T13:49:48;13.90;99.90
54700;DHT22;40599;53.132;6.090;2022-11-04T13:52:14;13.80;99.90
54700;DHT22;40599;53.132;6.090;2022-11-04T13:54:43;13.70;99.90
54700;DHT22;40599;53.132;6.090;2022-11-04T13:57:15;13.50;99.90
54700;DHT22;40599;53.132;6.090;2022-11-04T13:59:41;13.50;99.90
54700;DHT22;40599;53.132;6.090;2022-11-04T14:04:46;13.40;99.90
54700;DHT22;40599;53.132;6.090;2022-11-04T14:07:13;13.30;99.90
54700;DHT22;40599;53.132;6.090;2022-11-04T14:14:42;13.00;99.90
54700;DHT22;40599;53.132;6.090;2022-11-04T14:19:56;12.90;99.90
54700;DHT22;40599;53.132;6.090;2022-11-04T14:23:17;12.80;99.90
54700;DHT22;40599;53.132;6.090;2022-11-04T14:25:25;12.70;99.90
54700;DHT22;40599;53.132;6.090;2022-11-04T14:27:56;12.70;99.90
54700;DHT22;40599;53.132;6.090;2022-11-04T14:30:26;12.70;99.90
54700;DHT22;40599;53.132;6.090;2022-11-04T14:32:57;12.60;99.90
54700;DHT22;40599;53.132;6.090;2022-11-04T14:35:23;12.60;99.90
54700;DHT22;40599;53.132;6.090;2022-11-04T14:37:50;12.50;99.90
54700;DHT22;40599;53.132;6.090;2022-11-04T14:40:27;12.40;99.90
54700;DHT22;40599;53.132;6.090;2022-11-04T14:42:54;12.50;99.90
54700;DHT22;40599;53.132;6.090;2022-11-04T14:45:21;13.50;99.90
54700;DHT22;40599;53.132;6.090;2022-11-04T14:47:50;12.40;99.90
54700;DHT22;40599;53.132;6.090;2022-11-04T14:50:22;12.30;99.90
54700;DHT22;40599;53.132;6.090;2022-11-04T14:52:50;12.20;99.90
54700;DHT22;40599;53.132;6.090;2022-11-04T14:55:17;12.20;99.90
54700;DHT22;40599;53.132;6.090;2022-11-04T14:57:47;12.10;99.90
54700;DHT22;40599;53.132;6.090;2022-11-04T15:05:37;12.00;99.90
54700;DHT22;40599;53.132;6.090;2022-11-04T15:10:50;12.00;99.90
54700;DHT22;40599;53.132;6.090;2022-11-04T15:13:19;11.90;99.90
54700;DHT22;40599;53.132;6.090;2022-11-04T15:15:45;11.90;99.90
54700;DHT22;40599;53.132;6.090;2022-11-04T15:18:16;11.90;99.90
54700;DHT22;40599;53.132;6.090;2022-11-04T15:20:46;11.80;99.90
54700;DHT22;40599;53.132;6.090;2022-11-04T15:23:13;11.70;99.90
54700;DHT22;40599;53.132;6.090;2022-11-04T15:25:43;11.60;99.90
54700;DHT22;40599;53.132;6.090;2022-11-04T15:28:28;11.60;99.90
54700;DHT22;40599;53.132;6.090;2022-11-04T15:31:27;11.50;99.90
54700;DHT22;40599;53.132;6.090;2022-11-04T15:33:49;11.50;99.90
54700;DHT22;40599;53.132;6.090;2022-11-04T15:38:44;11.40;99.90
54700;DHT22;40599;53.132;6.090;2022-11-04T15:41:11;11.40;99.90
54700;DHT22;40599;53.132;6.090;2022-11-04T15:43:56;11.30;99.90
54700;DHT22;40599;53.132;6.090;2022-11-04T15:46:21;11.30;99.90
54700;DHT22;40599;53.132;6.090;2022-11-04T15:49:05;11.20;99.90
54700;DHT22;40599;53.132;6.090;2022-11-04T15:51:38;11.10;99.90
54700;DHT22;40599;53.132;6.090;2022-11-04T15:56:52;11.00;99.90
54700;DHT22;40599;53.132;6.090;2022-11-04T15:59:27;10.90;99.90
54700;DHT22;40599;53.132;6.090;2022-11-04T18:28:41;8.60;99.90
54700;DHT22;40599;53.132;6.090;2022-11-04T18:31:07;8.70;99.90
54700;DHT22;40599;53.132;6.090;2022-11-04T18:33:33;8.60;99.90
54700;DHT22;40599;53.132;6.090;2022-11-04T18:36:03;7.70;99.90
54700;DHT22;40599;53.132;6.090;2022-11-04T18:38:29;8.60;99.90
54700;DHT22;40599;53.132;6.090;2022-11-04T18:40:55;8.50;99.90
54700;DHT22;40599;53.132;6.090;2022-11-04T18:43:20;8.50;99.90
54700;DHT22;40599;53.132;6.090;2022-11-04T18:45:46;8.50;99.90
54700;DHT22;40599;53.132;6.090;2022-11-04T18:48:12;8.50;99.90
54700;DHT22;40599;53.132;6.090;2022-11-04T18:50:38;8.40;99.90
54700;DHT22;40599;53.132;6.090;2022-11-04T18:53:03;8.40;99.90
54700;DHT22;40599;53.132;6.090;2022-11-04T18:55:31;8.30;99.90
54700;DHT22;40599;53.132;6.090;2022-11-04T18:57:57;8.30;99.90
54700;DHT22;40599;53.132;6.090;2022-11-04T19:00:22;8.30;99.90
54700;DHT22;40599;53.132;6.090;2022-11-04T19:02:48;8.30;99.90
54700;DHT22;40599;53.132;6.090;2022-11-04T19:05:14;8.40;99.90
54700;DHT22;40599;53.132;6.090;2022-11-04T19:07:40;8.40;99.90
54700;DHT22;40599;53.132;6.090;2022-11-04T19:10:06;8.40;99.90
54700;DHT22;40599;53.132;6.090;2022-11-04T19:12:32;8.40;99.90
54700;DHT22;40599;53.132;6.090;2022-11-04T19:15:16;8.50;99.90
54700;DHT22;40599;53.132;6.090;2022-11-04T19:17:42;8.50;99.90
54700;DHT22;40599;53.132;6.090;2022-11-04T19:20:08;8.50;99.90
54700;DHT22;40599;53.132;6.090;2022-11-04T19:22:34;8.40;99.90
54700;DHT22;40599;53.132;6.090;2022-11-04T19:24:59;8.40;99.90
54700;DHT22;40599;53.132;6.090;2022-11-04T19:27:25;8.40;99.90
54700;DHT22;40599;53.132;6.090;2022-11-04T19:29:51;8.30;99.90
54700;DHT22;40599;53.132;6.090;2022-11-04T19:32:16;8.30;99.90
54700;DHT22;40599;53.132;6.090;2022-11-04T19:34:42;8.30;99.90
54700;DHT22;40599;53.132;6.090;2022-11-04T19:37:08;8.30;99.90
54700;DHT22;40599;53.132;6.090;2022-11-04T19:39:33;8.30;99.90
54700;DHT22;40599;53.132;6.090;2022-11-04T19:41:59;8.20;99.90
54700;DHT22;40599;53.132;6.090;2022-11-04T19:44:43;8.20;99.90
54700;DHT22;40599;53.132;6.090;2022-11-04T19:47:09;8.20;99.90
54700;DHT22;40599;53.132;6.090;2022-11-04T19:49:35;8.10;99.90
54700;DHT22;40599;53.132;6.090;2022-11-04T19:52:01;8.00;99.90
54700;DHT22;40599;53.132;6.090;2022-11-04T19:54:26;8.00;99.90
54700;DHT22;40599;53.132;6.090;2022-11-04T19:56:52;8.00;99.90
54700;DHT22;40599;53.132;6.090;2022-11-04T19:59:18;7.90;99.90
54700;DHT22;40599;53.132;6.090;2022-11-04T20:01:44;7.90;99.90
54700;DHT22;40599;53.132;6.090;2022-11-04T20:04:09;7.90;99.90
54700;DHT22;40599;53.132;6.090;2022-11-04T20:06:36;7.90;99.90
54700;DHT22;40599;53.132;6.090;2022-11-04T20:09:03;7.80;99.90
54700;DHT22;40599;53.132;6.090;2022-11-04T20:11:32;7.80;99.90
54700;DHT22;40599;53.132;6.090;2022-11-04T20:13:58;7.70;99.90
54700;DHT22;40599;53.132;6.090;2022-11-04T20:16:25;7.70;99.90
54700;DHT22;40599;53.132;6.090;2022-11-04T20:18:52;7.60;99.90
54700;DHT22;40599;53.132;6.090;2022-11-04T20:21:21;7.60;99.90
54700;DHT22;40599;53.132;6.090;2022-11-04T20:23:47;7.60;99.90
54700;DHT22;40599;53.132;6.090;2022-11-04T20:26:15;7.50;99.90
54700;DHT22;40599;53.132;6.090;2022-11-04T20:28:41;7.60;99.90
54700;DHT22;40599;53.132;6.090;2022-11-04T20:31:14;7.60;99.90
54700;DHT22;40599;53.132;6.090;2022-11-04T20:33:42;7.60;99.90
54700;DHT22;40599;53.132;6.090;2022-11-04T20:36:08;7.50;99.90
54700;DHT22;40599;53.132;6.090;2022-11-04T20:38:34;7.50;99.90
54700;DHT22;40599;53.132;6.090;2022-11-04T20:41:10;7.50;99.90